Time;durP1;ratioP1;P1;durP2;ratioP2;P2;SDS_P1;SDS_P2;PMS_P1;PMS_P2;Temp;Humidity;BMP_temperature;BMP_pressure;BME280_temperature;BME280_humidity;BME280_pressure;Samples;Min_cycle;Max_cycle;Signal;HPM_P1;HPM_P2
2021/03/24 00:02:04;;;;;;;11.23;6.57;;;;;;;3.60;94.96;101665.69;4990927;28;20190;-74
2021/03/24 00:04:31;;;;;;;9.97;6.47;;;;;;;3.59;95.02;101670.84;4989479;28;20193;-74
2021/03/24 00:06:57;;;;;;;15.37;6.83;;;;;;;3.57;94.88;101663.06;4987388;28;20202;-72
2021/03/24 00:09:23;;;;;;;11.87;7.10;;;;;;;3.57;94.93;101655.34;4984593;28;20664;-71
2021/03/24 00:11:49;;;;;;;11.50;6.77;;;;;;;3.58;94.75;101661.34;4991565;28;20261;-72
2021/03/24 00:14:15;;;;;;;13.17;7.30;;;;;;;3.58;94.57;101662.22;4985640;28;20484;-72
2021/03/24 00:16:41;;;;;;;12.47;7.60;;;;;;;3.58;94.67;101662.22;4985060;28;20228;-73
2021/03/24 00:19:07;;;;;;;12.73;7.00;;;;;;;3.58;94.36;101662.22;4980343;28;20867;-73
2021/03/24 00:21:34;;;;;;;11.03;7.03;;;;;;;3.58;94.47;101662.22;4974112;28;20483;-73
2021/03/24 00:24:00;;;;;;;12.47;6.87;;;;;;;3.58;94.48;101654.47;4987706;28;20251;-72
2021/03/24 00:26:26;;;;;;;12.03;6.47;;;;;;;3.59;94.23;101660.53;4975219;28;20233;-72
2021/03/24 00:28:53;;;;;;;11.60;7.30;;;;;;;3.57;94.22;101660.50;4980302;28;20213;-72
2021/03/24 00:31:19;;;;;;;10.37;6.83;;;;;;;3.57;94.21;101657.91;4983680;28;20243;-72
2021/03/24 00:33:45;;;;;;;9.53;6.70;;;;;;;3.57;94.36;101660.50;4978920;28;20209;-73
2021/03/24 00:36:11;;;;;;;13.77;6.87;;;;;;;3.56;94.59;101658.75;4989604;28;20189;-72
2021/03/24 00:38:38;;;;;;;15.23;7.53;;;;;;;3.56;94.71;101669.06;4978454;28;20470;-72
2021/03/24 00:41:05;;;;;;;11.70;7.20;;;;;;;3.55;94.46;101663.88;4993302;28;20625;-72
2021/03/24 00:43:32;;;;;;;13.00;6.93;;;;;;;3.54;94.06;101663.00;4977185;28;20197;-72
2021/03/24 00:45:58;;;;;;;11.90;7.37;;;;;;;3.53;94.62;101666.41;5004533;28;20254;-72
2021/03/24 00:48:26;;;;;;;14.57;7.17;;;;;;;3.52;94.31;101654.38;4979581;28;20200;-72
2021/03/24 00:50:53;;;;;;;13.07;7.53;;;;;;;3.53;94.32;101663.84;4982501;28;20261;-72
2021/03/24 00:53:19;;;;;;;15.10;7.53;;;;;;;3.52;94.06;101659.53;4979347;28;20744;-72
2021/03/24 00:55:49;;;;;;;14.10;8.07;;;;;;;3.54;94.21;101657.84;4977541;28;20717;-72
2021/03/24 00:58:17;;;;;;;12.13;7.20;;;;;;;3.52;94.22;101651.78;4987618;28;20257;-72
2021/03/24 01:00:44;;;;;;;12.80;7.80;;;;;;;3.51;94.18;101660.34;4977273;28;20267;-72
2021/03/24 01:03:10;;;;;;;12.30;7.60;;;;;;;3.51;94.27;101660.34;4981809;28;20510;-72
2021/03/24 01:05:38;;;;;;;13.93;7.03;;;;;;;3.51;94.45;101664.66;4977678;28;20202;-72
2021/03/24 01:08:07;;;;;;;13.77;7.60;;;;;;;3.50;94.38;101662.91;4985842;28;20645;-72
2021/03/24 01:10:35;;;;;;;12.67;6.93;;;;;;;3.48;94.42;101669.75;4977063;28;20311;-72
2021/03/24 01:13:03;;;;;;;10.97;7.03;;;;;;;3.49;94.33;101661.19;4982853;28;20543;-72
2021/03/24 01:15:29;;;;;;;13.80;6.87;;;;;;;3.48;94.12;101668.03;4975980;28;20663;-72
2021/03/24 01:17:56;;;;;;;10.37;6.83;;;;;;;3.49;93.97;101671.50;4978290;28;20242;-72
2021/03/24 01:20:24;;;;;;;13.03;7.63;;;;;;;3.49;94.02;101667.19;4981341;28;20687;-72
2021/03/24 01:22:50;;;;;;;13.97;7.73;;;;;;;3.48;94.13;101667.16;4977511;28;20734;-72
2021/03/24 01:25:16;;;;;;;14.73;7.90;;;;;;;3.47;94.00;101670.59;4982871;28;20217;-72
2021/03/24 01:27:42;;;;;;;14.27;7.60;;;;;;;3.47;94.42;101653.41;4978714;28;20688;-72
2021/03/24 01:30:10;;;;;;;12.97;7.00;;;;;;;3.45;94.28;101655.09;4980306;28;20220;-72
2021/03/24 01:32:37;;;;;;;12.40;7.33;;;;;;;3.44;94.22;101650.75;4979897;28;20661;-72
2021/03/24 01:35:05;;;;;;;12.97;7.37;;;;;;;3.43;94.44;101649.03;4970736;28;20252;-72
2021/03/24 01:37:31;;;;;;;13.97;7.80;;;;;;;3.42;94.64;101649.88;4972878;28;20197;-72
2021/03/24 01:39:57;;;;;;;12.67;7.37;;;;;;;3.41;94.91;101646.44;4980925;28;20221;-72
2021/03/24 01:42:23;;;;;;;11.53;7.57;;;;;;;3.41;94.75;101648.13;4978217;28;20228;-72
2021/03/24 01:45:10;;;;;;;13.13;7.43;;;;;;;3.41;94.57;101653.28;4979062;28;20216;-72
2021/03/24 01:47:37;;;;;;;13.70;7.83;;;;;;;3.40;94.61;101646.41;4982283;28;20204;-72
2021/03/24 01:50:11;;;;;;;11.67;7.63;;;;;;;3.40;94.37;101638.66;4976841;28;20373;-72
2021/03/24 01:52:37;;;;;;;11.87;7.33;;;;;;;3.39;94.69;101644.66;4987175;28;20729;-72
2021/03/24 01:55:04;;;;;;;11.67;7.43;;;;;;;3.39;94.35;101639.50;4980114;28;20209;-72
2021/03/24 01:57:31;;;;;;;12.13;7.90;;;;;;;3.38;94.51;101638.63;4978963;28;20214;-72
2021/03/24 01:59:57;;;;;;;12.47;7.63;;;;;;;3.39;94.58;101645.53;4973869;28;20221;-72
2021/03/24 02:02:26;;;;;;;11.83;7.60;;;;;;;3.38;94.69;101641.22;4978389;28;20448;-73
2021/03/24 02:04:55;;;;;;;12.20;7.50;;;;;;;3.37;94.73;101644.63;4972316;28;20236;-72
2021/03/24 02:07:27;;;;;;;12.20;7.20;;;;;;;3.36;94.75;101637.72;4976520;28;20201;-72
2021/03/24 02:10:01;;;;;;;11.43;7.57;;;;;;;3.35;94.72;101642.84;4985105;28;20300;-72
2021/03/24 02:12:34;;;;;;;14.43;7.60;;;;;;;3.35;94.30;101642.84;4981659;28;20488;-72
2021/03/24 02:15:08;;;;;;;12.67;7.70;;;;;;;3.33;94.91;101635.09;4985549;28;20220;-72
2021/03/24 02:17:39;;;;;;;13.40;7.60;;;;;;;3.32;94.50;101630.75;4981325;28;20732;-72
2021/03/24 02:20:13;;;;;;;12.37;7.60;;;;;;;3.32;94.72;101635.91;4983249;28;20728;-72
2021/03/24 02:22:43;;;;;;;11.07;7.17;;;;;;;3.32;94.64;101632.47;4981254;28;20216;-72
2021/03/24 02:25:16;;;;;;;13.00;7.27;;;;;;;3.32;94.78;101638.50;4988217;28;20226;-72
2021/03/24 02:27:49;;;;;;;13.53;7.57;;;;;;;3.32;94.49;101624.75;4982288;28;20602;-72
2021/03/24 02:30:20;;;;;;;13.87;8.07;;;;;;;3.32;94.50;101633.34;4983098;28;20748;-72
2021/03/24 02:32:50;;;;;;;12.63;8.17;;;;;;;3.32;94.53;101628.19;4984349;28;20212;-72
2021/03/24 02:35:21;;;;;;;15.73;7.93;;;;;;;3.33;94.25;101634.22;4982784;28;20294;-72
2021/03/24 02:37:48;;;;;;;12.83;8.40;;;;;;;3.33;94.28;101634.22;4980952;28;20202;-72
2021/03/24 02:40:18;;;;;;;13.53;7.67;;;;;;;3.34;93.93;101643.69;4979119;28;20761;-72
2021/03/24 02:42:47;;;;;;;13.60;8.03;;;;;;;3.34;94.06;101638.53;4980820;28;20225;-72
2021/03/24 02:45:19;;;;;;;14.73;8.20;;;;;;;3.35;94.36;101635.97;4980587;28;20217;-72
2021/03/24 02:47:47;;;;;;;14.60;7.73;;;;;;;3.35;94.05;101637.69;4987796;28;20210;-72
2021/03/24 02:50:14;;;;;;;15.63;9.00;;;;;;;3.35;93.82;101632.53;4986548;28;20248;-72
2021/03/24 02:52:41;;;;;;;13.97;8.30;;;;;;;3.36;93.85;101637.72;4981058;28;20197;-72
2021/03/24 02:55:11;;;;;;;14.27;8.23;;;;;;;3.36;93.76;101640.31;4978161;28;20658;-72
2021/03/24 02:57:37;;;;;;;15.13;8.23;;;;;;;3.36;93.68;101636.84;4986326;28;20209;-72
2021/03/24 03:00:06;;;;;;;18.73;8.80;;;;;;;3.35;93.62;101640.28;4987252;28;20209;-72
2021/03/24 03:02:37;;;;;;;13.43;7.83;;;;;;;3.34;93.75;101633.38;4981192;28;20284;-72
2021/03/24 03:05:08;;;;;;;15.47;8.70;;;;;;;3.33;93.83;101634.22;4981097;28;20237;-72
2021/03/24 03:07:40;;;;;;;11.97;7.77;;;;;;;3.31;93.93;101631.63;4978848;28;20689;-72
2021/03/24 03:10:10;;;;;;;17.27;8.13;;;;;;;3.32;94.12;101638.50;4982336;28;20249;-72
2021/03/24 03:12:43;;;;;;;14.40;8.00;;;;;;;3.31;94.00;101633.34;4979366;28;20247;-72
2021/03/24 03:15:19;;;;;;;15.83;8.33;;;;;;;3.30;94.15;101636.75;4980983;28;20613;-72
2021/03/24 03:17:52;;;;;;;13.63;7.37;;;;;;;3.29;94.19;101637.56;4978226;28;20578;-72
2021/03/24 03:20:21;;;;;;;13.60;7.83;;;;;;;3.29;94.33;101634.97;5001366;28;20228;-72
2021/03/24 03:22:52;;;;;;;14.10;8.20;;;;;;;3.29;94.29;101627.25;4982546;28;21001;-72
2021/03/24 03:25:22;;;;;;;15.60;8.50;;;;;;;3.29;94.06;101633.31;4982591;28;20201;-72
2021/03/24 03:27:53;;;;;;;14.30;8.87;;;;;;;3.29;93.92;101638.47;4998603;28;20251;-72
2021/03/24 03:30:25;;;;;;;15.43;8.53;;;;;;;3.27;94.14;101628.94;4983872;28;20592;-72
2021/03/24 03:32:54;;;;;;;15.03;8.47;;;;;;;3.27;93.77;101634.94;4977212;28;20579;-72
2021/03/24 03:35:23;;;;;;;14.50;8.57;;;;;;;3.27;93.56;101637.53;4979160;28;20737;-72
2021/03/24 03:37:52;;;;;;;12.27;7.57;;;;;;;3.27;93.67;101628.94;4999896;28;20208;-72
2021/03/24 03:40:21;;;;;;;12.90;8.00;;;;;;;3.26;93.69;101633.22;4977579;28;20690;-72
2021/03/24 03:42:48;;;;;;;14.00;8.33;;;;;;;3.26;93.98;101629.78;4981168;28;20241;-72
2021/03/24 03:45:15;;;;;;;15.17;8.13;;;;;;;3.25;93.71;101631.47;4983372;28;20193;-73
2021/03/24 03:47:43;;;;;;;14.77;8.47;;;;;;;3.25;94.06;101633.19;4983508;28;20552;-73
2021/03/24 03:50:14;;;;;;;14.13;8.67;;;;;;;3.25;93.96;101633.19;4979267;28;20411;-73
2021/03/24 03:52:50;;;;;;;13.43;7.73;;;;;;;3.23;94.02;101636.59;4979729;28;20733;-72
2021/03/24 03:55:25;;;;;;;11.87;7.53;;;;;;;3.22;93.92;101627.16;4977687;28;20207;-72
2021/03/24 03:57:54;;;;;;;19.03;8.33;;;;;;;3.23;93.99;101635.75;4977634;28;20197;-72
2021/03/24 04:00:25;;;;;;;14.03;7.93;;;;;;;3.21;93.83;101634.84;4982216;28;20227;-73
2021/03/24 04:02:56;;;;;;;15.97;8.37;;;;;;;3.22;94.01;101637.47;4979138;28;20202;-73
2021/03/24 04:05:27;;;;;;;14.47;8.63;;;;;;;3.22;94.01;101639.19;5001559;28;20280;-72
2021/03/24 04:07:58;;;;;;;15.07;8.87;;;;;;;3.21;94.05;101646.00;4978525;28;20212;-72
2021/03/24 04:10:27;;;;;;;15.03;8.73;;;;;;;3.20;93.97;101639.13;4983830;28;20213;-72
2021/03/24 04:12:55;;;;;;;15.93;9.10;;;;;;;3.20;94.33;101633.97;4979537;28;20444;-72
2021/03/24 04:15:24;;;;;;;13.90;8.63;;;;;;;3.19;94.49;101632.22;4983297;28;20208;-72
2021/03/24 04:18:02;;;;;;;17.60;9.50;;;;;;;3.20;94.91;101631.41;4980076;28;20255;-72
2021/03/24 04:20:31;;;;;;;22.93;10.27;;;;;;;3.21;94.82;101630.56;4979757;28;20228;-72
2021/03/24 04:23:00;;;;;;;18.37;9.73;;;;;;;3.20;95.09;101627.94;4988244;28;20669;-72
2021/03/24 04:25:31;;;;;;;18.67;9.93;;;;;;;3.20;95.16;101630.50;4978254;28;20666;-72
2021/03/24 04:28:02;;;;;;;20.43;10.90;;;;;;;3.19;95.01;101627.06;4984029;28;20213;-73
2021/03/24 04:30:34;;;;;;;15.93;9.40;;;;;;;3.18;95.09;101633.09;4979200;28;20286;-73
2021/03/24 04:33:01;;;;;;;16.07;9.90;;;;;;;3.18;95.36;101627.94;4982286;28;20201;-73
2021/03/24 04:35:27;;;;;;;18.20;9.73;;;;;;;3.17;95.28;101633.91;4978219;28;20583;-73
2021/03/24 04:37:57;;;;;;;19.53;10.33;;;;;;;3.17;95.54;101633.91;4982559;28;20210;-73
2021/03/24 04:40:29;;;;;;;19.27;9.33;;;;;;;3.17;95.55;101633.06;4981227;28;20214;-73
2021/03/24 04:42:59;;;;;;;15.90;9.10;;;;;;;3.16;95.40;101629.59;4978038;28;20202;-73
2021/03/24 04:45:34;;;;;;;16.40;10.03;;;;;;;3.18;95.77;101629.63;4976143;28;20723;-73
2021/03/24 04:48:05;;;;;;;16.13;9.23;;;;;;;3.17;95.62;101628.75;4984110;28;20632;-73
2021/03/24 04:50:37;;;;;;;20.00;9.63;;;;;;;3.18;95.40;101635.66;4980970;28;20297;-73
2021/03/24 04:53:05;;;;;;;16.63;10.57;;;;;;;3.20;95.36;101630.50;4982576;28;20201;-73
2021/03/24 04:55:33;;;;;;;20.40;10.77;;;;;;;3.19;95.67;101626.22;4981883;28;20201;-73
2021/03/24 04:58:02;;;;;;;18.97;10.13;;;;;;;3.20;95.46;101630.50;4977866;28;20454;-72
2021/03/24 05:00:36;;;;;;;19.70;10.50;;;;;;;3.20;95.69;101636.56;4979721;28;20213;-72
2021/03/24 05:03:08;;;;;;;18.37;10.07;;;;;;;3.20;95.53;101635.66;4974102;28;20228;-72
2021/03/24 05:05:38;;;;;;;18.33;9.47;;;;;;;3.19;95.15;101624.50;4982194;28;20207;-72
2021/03/24 05:08:11;;;;;;;19.60;10.20;;;;;;;3.21;95.23;101622.81;4976962;28;20209;-72
2021/03/24 05:10:37;;;;;;;18.23;9.53;;;;;;;3.21;95.46;101621.97;4982799;28;20657;-72
2021/03/24 05:13:12;;;;;;;18.67;9.53;;;;;;;3.21;95.93;101625.41;4980904;28;20207;-72
2021/03/24 05:15:41;;;;;;;16.93;9.37;;;;;;;3.21;95.69;101620.25;4979462;28;20465;-72
2021/03/24 05:18:12;;;;;;;19.90;10.43;;;;;;;3.22;95.79;101619.41;4981756;28;20280;-72
2021/03/24 05:20:44;;;;;;;19.00;10.03;;;;;;;3.24;95.84;101614.28;4980060;28;20233;-72
2021/03/24 05:23:16;;;;;;;20.77;10.50;;;;;;;3.25;95.85;101617.72;4998285;28;20686;-72
2021/03/24 05:25:45;;;;;;;20.60;10.87;;;;;;;3.26;96.17;101624.63;4978309;28;20285;-72
2021/03/24 05:28:15;;;;;;;18.90;11.30;;;;;;;3.26;95.83;101607.44;4982550;28;20204;-72
2021/03/24 05:30:49;;;;;;;20.43;10.63;;;;;;;3.29;95.95;101620.41;4979608;28;20232;-72
2021/03/24 05:33:20;;;;;;;18.50;10.73;;;;;;;3.29;95.94;101615.25;4990513;28;20700;-72
2021/03/24 05:35:53;;;;;;;19.33;10.37;;;;;;;3.32;96.00;101624.75;4978946;28;20239;-72
2021/03/24 05:38:22;;;;;;;20.83;10.60;;;;;;;3.32;95.58;101628.19;4983453;28;21766;-72
2021/03/24 05:41:00;;;;;;;18.57;10.50;;;;;;;3.35;95.31;101624.81;4979441;28;20316;-72
2021/03/24 05:43:51;;;;;;;19.70;10.47;;;;;;;3.37;95.50;101615.38;4983449;28;20227;-72
2021/03/24 05:46:34;;;;;;;21.33;12.53;;;;;;;3.39;95.68;101624.91;4980055;28;20245;-72
2021/03/24 05:49:12;;;;;;;24.17;12.13;;;;;;;3.42;95.39;101627.53;4980509;28;20225;-72
2021/03/24 05:51:52;;;;;;;26.17;12.87;;;;;;;3.45;95.58;101631.00;4976801;28;20258;-72
2021/03/24 05:54:36;;;;;;;23.00;13.03;;;;;;;3.50;95.27;101630.28;4985594;28;20266;-72
2021/03/24 05:57:15;;;;;;;35.80;17.67;;;;;;;3.52;95.19;101635.47;4980929;28;20321;-72
2021/03/24 05:59:51;;;;;;;26.70;14.93;;;;;;;3.56;94.99;101626.94;4977031;28;21446;-72
2021/03/24 06:02:21;;;;;;;24.77;13.30;;;;;;;3.59;94.76;101634.72;4981477;28;20235;-72
2021/03/24 06:04:52;;;;;;;24.00;12.47;;;;;;;3.64;94.42;101632.22;4980166;28;20606;-72
2021/03/24 06:07:46;;;;;;;27.27;14.50;;;;;;;3.66;94.19;101631.44;4975981;28;20222;-73
2021/03/24 06:10:44;;;;;;;26.63;13.67;;;;;;;3.70;94.13;101633.22;4977079;28;20234;-73
2021/03/24 06:13:52;;;;;;;39.47;21.67;;;;;;;3.75;94.16;101633.31;4973160;28;20749;-73
2021/03/24 06:16:55;;;;;;;32.90;16.93;;;;;;;3.78;94.03;101638.50;4973219;28;20229;-72
2021/03/24 06:19:33;;;;;;;33.80;15.80;;;;;;;3.83;94.21;101628.28;4974465;28;20699;-72
2021/03/24 06:22:10;;;;;;;35.90;17.53;;;;;;;3.86;94.28;101634.34;4980906;28;20559;-72
2021/03/24 06:24:53;;;;;;;35.17;17.17;;;;;;;3.91;93.81;101639.59;4977259;28;20385;-72
2021/03/24 06:27:36;;;;;;;35.23;17.03;;;;;;;3.96;93.80;101628.50;4984608;28;20311;-73
2021/03/24 06:30:25;;;;;;;26.80;14.40;;;;;;;4.04;93.34;101631.22;4984044;28;20235;-73
2021/03/24 06:33:19;;;;;;;27.03;15.37;;;;;;;4.11;93.02;101639.94;5001413;28;20641;-74
2021/03/24 06:36:15;;;;;;;23.83;12.73;;;;;;;4.17;92.94;101635.75;5000399;28;20210;-73
2021/03/24 06:38:53;;;;;;;26.37;13.63;;;;;;;4.26;93.07;101634.16;4989575;28;20578;-71
2021/03/24 06:41:49;;;;;;;25.93;14.07;;;;;;;4.31;92.14;101635.06;4990028;28;20278;-72
2021/03/24 06:44:31;;;;;;;25.03;12.70;;;;;;;4.38;92.06;101636.06;4992772;28;20229;-70
2021/03/24 06:47:04;;;;;;;26.47;13.70;;;;;;;4.43;91.88;101637.84;4989784;28;20197;-71
2021/03/24 06:49:39;;;;;;;24.70;13.87;;;;;;;4.50;91.42;101641.41;4997812;28;20714;-74
2021/03/24 06:52:54;;;;;;;27.37;14.87;;;;;;;4.58;91.17;101641.53;4990156;28;20229;-74
2021/03/24 06:56:10;;;;;;;26.97;14.47;;;;;;;4.65;91.24;101641.63;4994629;28;20221;-70
2021/03/24 06:59:06;;;;;;;25.33;12.83;;;;;;;4.73;91.30;101645.22;4991138;28;20289;-72
2021/03/24 07:01:49;;;;;;;31.93;14.57;;;;;;;4.81;90.46;101650.47;4990537;28;20650;-74
2021/03/24 07:04:53;;;;;;;31.80;17.20;;;;;;;4.88;89.92;101654.88;4990654;28;20280;-73
2021/03/24 07:07:34;;;;;;;26.57;13.90;;;;;;;4.93;89.44;101649.78;4995368;28;20208;-73
2021/03/24 07:10:11;;;;;;;27.73;14.47;;;;;;;5.01;88.47;101655.03;4993000;28;20265;-71
2021/03/24 07:12:55;;;;;;;26.57;15.10;;;;;;;5.09;88.60;101643.09;4995081;28;20209;-70
2021/03/24 07:15:32;;;;;;;28.00;14.87;;;;;;;5.16;87.95;101649.22;4989735;28;20272;-71
2021/03/24 07:18:29;;;;;;;25.73;14.23;;;;;;;5.26;88.94;101649.34;4986936;28;20209;-73
2021/03/24 07:21:40;;;;;;;27.40;15.37;;;;;;;5.34;87.88;101654.59;4991628;28;20228;-71
2021/03/24 07:24:38;;;;;;;30.43;14.60;;;;;;;5.40;87.30;101656.38;5000481;28;20687;-73
2021/03/24 07:27:26;;;;;;;30.23;14.70;;;;;;;5.46;87.61;101659.91;4992394;28;20240;-72
2021/03/24 07:30:03;;;;;;;31.50;15.30;;;;;;;5.50;87.07;101666.88;4986104;28;20230;-74
2021/03/24 07:32:48;;;;;;;30.30;14.77;;;;;;;5.56;86.96;101668.66;4991602;28;20732;-70
2021/03/24 07:35:44;;;;;;;26.13;14.50;;;;;;;5.60;85.83;101675.59;4994311;28;20198;-74
2021/03/24 07:38:44;;;;;;;28.67;15.70;;;;;;;5.66;85.83;101683.44;4994602;28;20201;-71
2021/03/24 07:41:47;;;;;;;28.43;14.73;;;;;;;5.75;85.43;101687.84;4993593;28;20224;-73
2021/03/24 07:44:37;;;;;;;31.73;15.63;;;;;;;5.79;84.58;101688.75;4993872;28;20202;-71
2021/03/24 07:47:29;;;;;;;27.37;15.33;;;;;;;5.81;84.75;101690.50;4994858;28;20207;-70
2021/03/24 07:50:16;;;;;;;33.10;15.80;;;;;;;5.85;83.94;101692.25;4996703;28;20229;-71
2021/03/24 07:52:57;;;;;;;31.27;16.00;;;;;;;5.87;84.19;101690.56;4992096;28;20229;-70
2021/03/24 07:55:31;;;;;;;31.27;15.83;;;;;;;5.92;84.20;101693.19;4992571;28;20257;-73
2021/03/24 07:58:15;;;;;;;26.63;15.50;;;;;;;5.99;83.99;101700.19;4990382;28;20232;-71
2021/03/24 08:00:49;;;;;;;30.97;16.03;;;;;;;6.07;83.19;101700.28;4991407;28;20243;-72
2021/03/24 08:03:22;;;;;;;31.70;16.47;;;;;;;6.12;83.13;101706.38;4993739;28;20241;-71
2021/03/24 08:06:02;;;;;;;28.20;16.63;;;;;;;6.16;82.04;101707.28;4990729;28;20225;-72
2021/03/24 08:08:41;;;;;;;29.60;17.33;;;;;;;6.25;82.67;101704.75;4998241;28;20665;-71
2021/03/24 08:11:18;;;;;;;34.43;17.63;;;;;;;6.27;82.29;101704.78;4992123;28;20217;-73
2021/03/24 08:14:02;;;;;;;37.17;18.53;;;;;;;6.30;81.89;101716.03;4996429;28;20216;-71
2021/03/24 08:16:41;;;;;;;37.23;18.17;;;;;;;6.43;82.53;101706.63;4994234;28;20193;-70
2021/03/24 08:19:27;;;;;;;34.27;18.33;;;;;;;6.49;82.41;101711.00;4997975;28;20323;-74
2021/03/24 08:22:09;;;;;;;38.37;20.47;;;;;;;6.55;82.15;101703.28;4996161;28;20243;-72
2021/03/24 08:24:56;;;;;;;34.33;18.73;;;;;;;6.63;82.02;101704.19;4996420;28;20220;-72
2021/03/24 08:27:28;;;;;;;40.13;20.80;;;;;;;6.72;80.98;101704.28;5010584;28;20278;-73
2021/03/24 08:30:10;;;;;;;36.60;20.67;;;;;;;6.81;80.95;101711.25;4991924;28;20224;-74
2021/03/24 08:33:01;;;;;;;35.87;20.07;;;;;;;7.00;81.69;101704.44;4988298;28;20393;-72
2021/03/24 08:36:03;;;;;;;40.20;20.33;;;;;;;7.00;79.68;101713.09;4996682;28;20417;-72
2021/03/24 08:38:40;;;;;;;38.67;21.13;;;;;;;7.08;79.43;101712.28;4992638;28;20600;-72
2021/03/24 08:41:31;;;;;;;39.23;21.77;;;;;;;7.14;79.46;101713.19;5017585;28;20570;-75
2021/03/24 08:44:04;;;;;;;46.63;24.20;;;;;;;7.22;79.15;101714.94;4992297;28;20206;-71
2021/03/24 08:46:36;;;;;;;38.20;21.37;;;;;;;7.29;79.88;101707.19;4988233;28;20200;-72
2021/03/24 08:49:05;;;;;;;37.57;21.03;;;;;;;7.29;78.78;101708.91;4991428;28;20224;-72
2021/03/24 08:51:44;;;;;;;40.97;22.60;;;;;;;7.31;79.00;101704.59;4990678;28;20246;-74
2021/03/24 08:54:37;;;;;;;39.83;23.03;;;;;;;7.36;78.18;101708.09;4993657;28;20197;-73
2021/03/24 08:57:14;;;;;;;38.10;20.90;;;;;;;7.38;78.32;101706.38;4993721;28;20238;-71
2021/03/24 08:59:42;;;;;;;42.10;21.03;;;;;;;7.38;77.04;101708.97;4989004;28;20237;-74
2021/03/24 09:02:27;;;;;;;41.70;22.50;;;;;;;7.45;77.99;101707.25;4992244;28;20204;-71
2021/03/24 09:05:23;;;;;;;46.53;23.20;;;;;;;7.50;77.30;101700.38;4987542;28;20885;-74
2021/03/24 09:08:23;;;;;;;40.13;22.40;;;;;;;7.55;75.50;101702.09;4995536;28;20553;-71
2021/03/24 09:11:04;;;;;;;40.93;22.87;;;;;;;7.67;76.86;101698.69;4989110;28;20240;-73
2021/03/24 09:13:34;;;;;;;41.10;23.00;;;;;;;7.79;76.26;101690.03;4997217;28;20211;-74
2021/03/24 09:16:37;;;;;;;44.07;23.80;;;;;;;7.78;75.58;101694.38;4990320;28;20208;-72
2021/03/24 09:19:16;;;;;;;48.37;24.93;;;;;;;7.88;74.81;101702.19;4993260;28;20311;-72
2021/03/24 09:21:57;;;;;;;45.63;23.67;;;;;;;7.94;74.58;101689.22;4991051;28;20835;-72
2021/03/24 09:24:36;;;;;;;43.83;23.50;;;;;;;7.99;73.56;101702.25;4994389;28;20215;-71
2021/03/24 09:27:28;;;;;;;44.70;23.93;;;;;;;8.12;73.21;101697.03;4990636;28;20216;-72
2021/03/24 09:30:13;;;;;;;47.97;24.40;;;;;;;8.28;73.26;101694.44;5005857;28;20218;-72
2021/03/24 09:32:49;;;;;;;43.03;23.80;;;;;;;8.36;72.72;101697.06;5002425;28;20207;-73
2021/03/24 09:35:35;;;;;;;46.90;26.97;;;;;;;8.37;72.03;101694.44;4994253;28;20211;-70
2021/03/24 09:38:06;;;;;;;44.30;24.27;;;;;;;8.32;71.92;101696.22;4993535;28;20208;-72
2021/03/24 09:40:40;;;;;;;43.40;23.57;;;;;;;8.29;71.53;101697.06;4993152;28;20223;-73
2021/03/24 09:43:17;;;;;;;48.47;25.47;;;;;;;8.28;71.35;101691.84;4989850;28;20205;-71
2021/03/24 09:45:44;;;;;;;46.80;25.77;;;;;;;8.27;71.23;101688.41;4991657;28;20193;-72
2021/03/24 09:48:14;;;;;;;45.37;24.30;;;;;;;8.45;72.46;101691.91;5006886;28;20209;-71
2021/03/24 09:50:47;;;;;;;47.43;26.07;;;;;;;8.48;70.04;101695.38;4990985;28;20212;-72
2021/03/24 09:53:18;;;;;;;45.50;25.67;;;;;;;8.53;71.80;101690.16;4986646;28;20317;-74
2021/03/24 09:55:47;;;;;;;48.70;24.80;;;;;;;8.59;69.82;101689.28;4992534;28;20243;-72
2021/03/24 09:58:37;;;;;;;45.90;24.87;;;;;;;8.66;70.22;101691.03;4985694;28;20273;-73
2021/03/24 10:01:24;;;;;;;49.57;24.53;;;;;;;8.75;71.05;101691.00;4990992;28;20190;-72
2021/03/24 10:03:54;;;;;;;43.63;24.07;;;;;;;8.81;68.54;101696.22;5007594;28;20216;-72
2021/03/24 10:06:26;;;;;;;44.67;24.00;;;;;;;8.74;70.27;101696.19;4988926;28;20273;-73
2021/03/24 10:09:03;;;;;;;47.70;25.00;;;;;;;8.75;69.21;101691.00;4998665;28;20443;-73
2021/03/24 10:11:39;;;;;;;48.43;24.83;;;;;;;8.79;68.16;101692.72;4986847;28;20522;-72
2021/03/24 10:14:11;;;;;;;44.33;23.93;;;;;;;8.88;69.56;101686.63;4991218;28;20255;-72
2021/03/24 10:16:42;;;;;;;44.93;24.40;;;;;;;8.79;68.29;101689.25;4988585;28;20401;-71
2021/03/24 10:19:16;;;;;;;47.80;25.73;;;;;;;8.67;68.04;101682.34;4992577;28;20667;-71
2021/03/24 10:21:48;;;;;;;43.87;24.10;;;;;;;8.81;68.37;101693.59;4992515;28;20205;-72
2021/03/24 10:24:17;;;;;;;48.47;25.27;;;;;;;8.85;68.35;101684.06;4993675;28;20691;-74
2021/03/24 10:26:51;;;;;;;46.20;24.33;;;;;;;8.89;67.51;101683.19;5003302;28;20289;-73
2021/03/24 10:29:23;;;;;;;49.00;25.30;;;;;;;9.09;67.84;101681.41;4996624;28;20262;-74
2021/03/24 10:31:53;;;;;;;52.03;25.43;;;;;;;9.06;66.89;101680.53;4989732;28;20261;-72
2021/03/24 10:34:23;;;;;;;47.77;24.07;;;;;;;9.18;66.91;101677.00;4994181;28;20213;-71
2021/03/24 10:36:56;;;;;;;45.93;24.53;;;;;;;9.20;66.82;101683.97;4991440;28;20214;-72
2021/03/24 10:39:28;;;;;;;49.00;25.07;;;;;;;9.26;67.61;101668.31;4994028;28;20219;-72
2021/03/24 10:42:08;;;;;;;42.60;24.30;;;;;;;9.36;67.55;101674.34;4999864;28;20209;-70
2021/03/24 10:44:45;;;;;;;48.37;25.40;;;;;;;9.35;66.43;101676.97;4995048;28;20201;-75
2021/03/24 10:47:30;;;;;;;46.57;23.90;;;;;;;9.41;67.77;101670.00;4992151;28;20219;-72
2021/03/24 10:50:14;;;;;;;43.17;24.17;;;;;;;9.51;67.02;101667.34;4995093;28;20247;-71
2021/03/24 10:52:43;;;;;;;44.97;24.20;;;;;;;9.58;66.52;101664.69;4994242;28;20269;-75
2021/03/24 10:55:16;;;;;;;48.30;24.50;;;;;;;9.74;67.79;101664.59;4992761;28;20256;-71
2021/03/24 10:57:53;;;;;;;44.60;24.73;;;;;;;9.60;66.45;101670.78;4995195;28;20224;-73
2021/03/24 11:00:25;;;;;;;48.43;26.00;;;;;;;9.76;65.94;101668.06;4991594;28;21019;-71
2021/03/24 11:02:59;;;;;;;47.30;25.77;;;;;;;9.66;65.68;101665.50;4986561;28;20202;-72
2021/03/24 11:05:29;;;;;;;44.93;25.30;;;;;;;9.70;64.33;101665.50;4989853;28;20233;-72
2021/03/24 11:08:02;;;;;;;47.43;26.13;;;;;;;9.68;64.91;101659.44;4999243;28;20248;-75
2021/03/24 11:10:43;;;;;;;48.47;26.03;;;;;;;9.70;64.76;101657.69;4988200;28;20999;-73
2021/03/24 11:13:18;;;;;;;48.10;24.97;;;;;;;9.75;64.29;101651.56;4995503;28;20697;-74
2021/03/24 11:15:52;;;;;;;51.63;25.97;;;;;;;9.80;64.93;101649.81;4990444;28;20284;-72
2021/03/24 11:18:30;;;;;;;47.07;25.53;;;;;;;9.80;63.13;101652.41;4993818;28;20197;-72
2021/03/24 11:20:59;;;;;;;44.47;25.17;;;;;;;9.76;64.09;101645.50;4979128;28;20830;-74
2021/03/24 11:23:30;;;;;;;51.43;26.00;;;;;;;9.88;64.02;101638.47;4994071;28;20240;-72
2021/03/24 11:26:02;;;;;;;45.73;24.57;;;;;;;9.89;63.43;101648.88;4996109;28;20190;-71
2021/03/24 11:28:33;;;;;;;49.13;25.80;;;;;;;9.99;64.16;101641.84;4988291;28;20774;-73
2021/03/24 11:31:05;;;;;;;48.93;25.43;;;;;;;9.94;64.52;101638.44;4990912;28;20609;-71
2021/03/24 11:33:37;;;;;;;43.50;24.87;;;;;;;10.01;65.47;101634.91;4983276;28;20207;-74
2021/03/24 11:36:14;;;;;;;45.77;25.30;;;;;;;10.09;66.59;101627.03;4994815;28;20282;-71
2021/03/24 11:38:49;;;;;;;43.70;24.33;;;;;;;10.19;64.64;101634.75;4991754;28;20202;-73
2021/03/24 11:41:21;;;;;;;44.23;24.27;;;;;;;10.24;63.48;101632.97;4990676;28;20220;-73
2021/03/24 11:43:58;;;;;;;44.37;25.07;;;;;;;10.33;64.13;101626.00;4990810;28;20208;-73
2021/03/24 11:46:33;;;;;;;45.33;24.83;;;;;;;10.37;63.11;101622.47;4989221;28;20199;-72
2021/03/24 11:49:17;;;;;;;45.47;25.47;;;;;;;10.56;63.92;101610.97;4989667;28;20269;-73
2021/03/24 11:52:06;;;;;;;48.77;25.53;;;;;;;10.55;63.25;101618.81;4989119;28;20273;-71
2021/03/24 11:54:37;;;;;;;47.30;25.13;;;;;;;10.57;63.18;101617.94;4985636;28;20228;-73
2021/03/24 11:57:20;;;;;;;47.20;24.87;;;;;;;10.68;62.09;101609.97;4988077;28;20344;-73